createdAt,value
2019-04-06T00:02:33.367Z,67.60
2019-04-06T00:05:01.844Z,67.70
2019-04-06T00:07:49.711Z,67.80
2019-04-06T00:10:18.270Z,68.00
2019-04-06T00:12:46.812Z,68.10
2019-04-06T00:15:15.332Z,68.30
2019-04-06T00:17:43.831Z,68.40
2019-04-06T00:20:12.575Z,68.50
2019-04-06T00:22:41.079Z,68.60
2019-04-06T00:25:09.952Z,68.60
2019-04-06T00:27:38.481Z,68.80
2019-04-06T00:30:08.870Z,68.90
2019-04-06T00:32:44.847Z,69.10
2019-04-06T00:35:13.517Z,69.20
2019-04-06T00:37:41.979Z,69.40
2019-04-06T00:40:10.873Z,69.50
2019-04-06T00:42:39.419Z,69.50
2019-04-06T00:45:08.249Z,69.50
2019-04-06T00:47:36.794Z,69.40
2019-04-06T00:50:07.263Z,69.60
2019-04-06T00:52:35.766Z,70.10
2019-04-06T00:55:05.270Z,70.10
2019-04-06T00:57:33.788Z,70.40
2019-04-06T01:00:02.282Z,70.60
2019-04-06T01:02:30.748Z,70.90
2019-04-06T01:04:59.198Z,71.00
2019-04-06T01:07:27.680Z,71.20
2019-04-06T01:09:56.142Z,71.40
2019-04-06T01:12:24.616Z,71.60
2019-04-06T01:14:53.163Z,71.80
2019-04-06T01:17:21.626Z,72.00
2019-04-06T01:19:50.322Z,72.30
2019-04-06T01:22:18.845Z,72.50
2019-04-06T01:24:47.298Z,72.70
2019-04-06T01:27:15.866Z,73.00
2019-04-06T01:29:44.389Z,73.30
2019-04-06T01:32:12.844Z,73.30
2019-04-06T01:34:41.323Z,73.50
2019-04-06T01:37:09.883Z,73.70
2019-04-06T01:39:38.426Z,73.90
2019-04-06T01:42:06.869Z,74.20
2019-04-06T01:44:35.370Z,74.30
2019-04-06T01:47:03.825Z,74.50
2019-04-06T01:49:32.274Z,74.90
2019-04-06T01:52:20.069Z,75.10
2019-04-06T01:54:56.196Z,75.30
2019-04-06T01:57:24.713Z,75.60
2019-04-06T01:59:53.342Z,75.80
2019-04-06T02:02:23.453Z,76.00
2019-04-06T02:04:51.923Z,76.40
2019-04-06T02:07:20.397Z,76.50
2019-04-06T02:09:48.929Z,76.80
2019-04-06T02:12:17.463Z,77.10
2019-04-06T02:14:45.970Z,77.30
2019-04-06T02:17:14.455Z,77.50
2019-04-06T02:19:42.938Z,77.80
2019-04-06T02:22:11.508Z,78.20
2019-04-06T02:24:40.041Z,78.30
2019-04-06T02:27:08.580Z,78.60
2019-04-06T02:29:37.146Z,78.90
2019-04-06T02:32:07.375Z,78.90
2019-04-06T02:34:37.630Z,78.90
2019-04-06T02:37:07.744Z,79.00
2019-04-06T02:39:40.727Z,79.50
2019-04-06T02:42:10.896Z,79.80
2019-04-06T02:44:39.389Z,80.00
2019-04-06T02:47:07.915Z,80.40
2019-04-06T02:49:36.375Z,80.50
2019-04-06T02:52:04.862Z,80.80
2019-04-06T02:54:33.326Z,81.00
2019-04-06T02:57:01.793Z,81.30
2019-04-06T02:59:30.346Z,81.40
2019-04-06T03:01:58.918Z,81.70
2019-04-06T03:04:27.821Z,82.10
2019-04-06T03:06:56.646Z,82.10
2019-04-06T03:09:25.311Z,82.30
2019-04-06T03:11:53.954Z,82.60
2019-04-06T03:14:22.694Z,82.80
2019-04-06T03:16:51.138Z,83.10
2019-04-06T03:19:19.774Z,83.40
2019-04-06T03:21:48.420Z,83.60
2019-04-06T03:24:17.127Z,83.80
2019-04-06T03:26:59.763Z,84.00
2019-04-06T03:29:15.948Z,84.20
2019-04-06T03:31:44.866Z,84.50
2019-04-06T03:34:19.825Z,84.80
2019-04-06T03:36:43.688Z,85.10
2019-04-06T03:39:12.517Z,85.30
2019-04-06T03:41:41.284Z,85.60
2019-04-06T03:44:09.834Z,85.80
2019-04-06T03:46:38.378Z,86.00
2019-04-06T03:49:06.882Z,86.10
2019-04-06T03:51:35.401Z,86.50
2019-04-06T03:54:03.942Z,86.70
2019-04-06T03:56:32.484Z,86.80
2019-04-06T03:59:01.031Z,87.00
2019-04-06T04:01:29.636Z,87.30
2019-04-06T04:03:58.095Z,87.40
2019-04-06T04:06:26.553Z,87.60
2019-04-06T04:08:55.331Z,87.70
2019-04-06T04:11:24.033Z,88.00
2019-04-06T04:13:52.697Z,88.30
2019-04-06T04:16:21.166Z,88.30
2019-04-06T04:18:49.704Z,88.30
2019-04-06T04:21:18.323Z,88.30
2019-04-06T04:23:47.135Z,88.60
2019-04-06T04:26:16.380Z,89.00
2019-04-06T04:28:44.898Z,89.10
2019-04-06T04:31:13.447Z,89.30
2019-04-06T04:33:42.012Z,89.50
2019-04-06T04:36:10.514Z,89.50
2019-04-06T04:38:39.173Z,89.70
2019-04-06T04:41:07.863Z,89.90
2019-04-06T04:43:36.605Z,89.90
2019-04-06T04:46:05.484Z,89.90
2019-04-06T04:48:34.019Z,90.00
2019-04-06T04:51:02.739Z,90.00
2019-04-06T04:53:31.215Z,90.00
2019-04-06T04:55:59.698Z,90.00
2019-04-06T04:58:28.238Z,90.00
2019-04-06T05:00:56.824Z,90.00
2019-04-06T05:03:25.358Z,90.00
2019-04-06T05:05:53.858Z,90.00
2019-04-06T05:08:22.318Z,90.00
2019-04-06T05:10:50.927Z,90.00
2019-04-06T05:13:19.415Z,90.00
2019-04-06T05:16:11.733Z,90.00
2019-04-06T05:18:41.621Z,90.00
2019-04-06T05:21:11.814Z,90.00
2019-04-06T05:23:40.354Z,90.30
2019-04-06T05:26:08.893Z,90.00
2019-04-06T05:28:37.461Z,90.00
2019-04-06T05:31:05.988Z,89.90
2019-04-06T05:33:34.818Z,89.80
2019-04-06T05:36:03.609Z,89.70
2019-04-06T05:38:32.065Z,89.70
2019-04-06T05:41:00.521Z,89.60
2019-04-06T05:43:28.983Z,89.10
2019-04-06T05:45:57.479Z,88.90
2019-04-06T05:48:26.144Z,88.90
2019-04-06T05:50:54.769Z,88.90
2019-04-06T05:53:23.579Z,88.90
2019-04-06T05:55:52.022Z,88.90
2019-04-06T05:58:20.593Z,88.80
2019-04-06T06:00:49.071Z,88.70
2019-04-06T06:03:17.602Z,89.00
2019-04-06T06:05:46.414Z,88.40
2019-04-06T06:08:14.911Z,88.30
2019-04-06T06:10:43.375Z,88.10
2019-04-06T06:13:11.828Z,87.90
2019-04-06T06:15:40.308Z,87.80
2019-04-06T06:18:08.842Z,87.70
2019-04-06T06:20:37.301Z,87.70
2019-04-06T06:23:05.800Z,87.50
2019-04-06T06:25:34.328Z,87.30
2019-04-06T06:28:13.501Z,87.10
2019-04-06T06:30:33.059Z,86.90
2019-04-06T06:33:01.829Z,86.90
2019-04-06T06:35:30.352Z,86.90
2019-04-06T06:37:58.908Z,86.50
2019-04-06T06:40:27.369Z,86.30
2019-04-06T06:42:55.834Z,86.30
2019-04-06T06:45:36.294Z,86.00
2019-04-06T06:48:05.274Z,85.60
2019-04-06T06:50:34.672Z,85.50
2019-04-06T06:53:03.609Z,85.50
2019-04-06T06:55:32.547Z,85.00
2019-04-06T06:58:01.278Z,85.10
2019-04-06T07:00:29.791Z,85.10
2019-04-06T07:02:58.237Z,84.70
2019-04-06T07:05:26.750Z,84.50
2019-04-06T07:07:55.341Z,84.10
2019-04-06T07:10:24.147Z,84.00
2019-04-06T07:12:52.649Z,83.60
2019-04-06T07:15:21.242Z,83.50
2019-04-06T07:17:50.662Z,83.10
2019-04-06T07:20:19.511Z,83.20
2019-04-06T07:22:48.144Z,83.20
2019-04-06T07:25:16.947Z,83.10
2019-04-06T07:27:45.422Z,83.00
2019-04-06T07:30:14.279Z,83.10
2019-04-06T07:32:43.206Z,82.70
2019-04-06T07:35:12.049Z,82.60
2019-04-06T07:37:40.555Z,82.40
2019-04-06T07:40:09.780Z,82.10
2019-04-06T07:42:39.226Z,81.80
2019-04-06T07:45:08.778Z,81.70
2019-04-06T07:47:37.255Z,81.20
2019-04-06T07:50:07.059Z,81.00
2019-04-06T07:52:36.390Z,81.00
2019-04-06T07:55:08.506Z,80.80
2019-04-06T07:57:36.986Z,81.10
2019-04-06T08:00:07.554Z,80.70
2019-04-06T08:02:36.020Z,80.70
2019-04-06T08:05:06.679Z,80.10
2019-04-06T08:07:35.184Z,79.80
2019-04-06T08:10:05.338Z,79.20
2019-04-06T08:12:33.839Z,78.60
2019-04-06T08:15:07.131Z,78.50
2019-04-06T08:17:35.863Z,78.20
2019-04-06T08:20:07.736Z,77.80
2019-04-06T08:22:36.526Z,77.20
2019-04-06T08:25:06.933Z,76.80
2019-04-06T08:27:35.549Z,76.30
2019-04-06T08:30:07.084Z,76.10
2019-04-06T08:32:35.583Z,75.50
2019-04-06T08:35:06.268Z,75.40
2019-04-06T08:37:34.788Z,75.70
2019-04-06T08:40:05.398Z,74.40
2019-04-06T08:42:34.085Z,74.80
2019-04-06T08:45:02.808Z,74.40
2019-04-06T08:47:31.276Z,74.40
2019-04-06T08:50:00.254Z,74.00
2019-04-06T08:52:28.745Z,73.30
2019-04-06T08:54:57.220Z,72.70
2019-04-06T08:57:25.834Z,72.80
2019-04-06T08:59:54.732Z,72.80
2019-04-06T09:02:23.371Z,72.10
2019-04-06T09:04:51.904Z,72.20
2019-04-06T09:07:20.504Z,72.20
2019-04-06T09:09:49.110Z,72.20
2019-04-06T09:12:17.581Z,72.00
2019-04-06T09:14:46.036Z,71.60
2019-04-06T09:17:14.642Z,70.70
2019-04-06T09:19:43.228Z,70.30
2019-04-06T09:22:11.868Z,70.10
2019-04-06T09:24:40.440Z,70.20
2019-04-06T09:27:08.902Z,70.30
2019-04-06T09:29:37.449Z,70.10
2019-04-06T09:32:06.011Z,70.00
2019-04-06T09:34:34.466Z,69.90
2019-04-06T09:37:02.929Z,69.40
2019-04-06T09:39:31.490Z,69.60
2019-04-06T09:42:00.126Z,69.60
2019-04-06T09:44:42.304Z,69.50
2019-04-06T09:47:12.404Z,68.60
2019-04-06T09:49:58.596Z,68.30
2019-04-06T09:52:40.725Z,67.60
2019-04-06T09:55:16.884Z,66.80
2019-04-06T09:58:05.372Z,66.30
2019-04-06T10:00:35.748Z,65.70
2019-04-06T10:03:06.215Z,65.70
2019-04-06T10:05:36.323Z,65.70
2019-04-06T10:08:09.619Z,65.30
2019-04-06T10:10:48.506Z,65.00
2019-04-06T10:13:21.118Z,63.80
2019-04-06T10:16:26.900Z,63.40
2019-04-06T10:19:03.106Z,63.10
2019-04-06T10:21:39.090Z,63.60
2019-04-06T10:24:20.442Z,63.20
2019-04-06T10:26:53.343Z,63.20
2019-04-06T10:29:23.460Z,63.00
2019-04-06T10:31:53.568Z,62.60
2019-04-06T10:34:32.275Z,62.00
2019-04-06T10:37:05.082Z,62.50
2019-04-06T10:39:35.296Z,61.90
2019-04-06T10:42:06.105Z,61.50
2019-04-06T10:44:52.339Z,61.10
2019-04-06T10:47:31.178Z,61.50
2019-04-06T10:50:07.317Z,61.10
2019-04-06T10:52:43.346Z,60.90
2019-04-06T10:55:13.674Z,60.30
2019-04-06T10:57:49.907Z,60.50
2019-04-06T11:00:36.412Z,60.30
2019-04-06T11:03:06.716Z,60.30
2019-04-06T11:05:36.818Z,60.40
2019-04-06T11:08:21.813Z,60.30
2019-04-06T11:10:57.506Z,59.90
2019-04-06T11:13:27.989Z,59.80
2019-04-06T11:16:04.005Z,59.60
2019-04-06T11:18:43.036Z,59.40
2019-04-06T11:21:13.401Z,59.00
2019-04-06T11:23:43.823Z,59.20
2019-04-06T11:26:33.023Z,58.60
2019-04-06T11:29:14.823Z,58.50
2019-04-06T11:32:02.818Z,58.20
2019-04-06T11:34:32.986Z,57.70
2019-04-06T11:37:21.307Z,57.20
2019-04-06T11:40:09.266Z,56.40
2019-04-06T11:42:55.868Z,56.30
2019-04-06T11:45:38.340Z,55.80
2019-04-06T11:48:17.761Z,55.00
2019-04-06T11:50:57.340Z,54.30
2019-04-06T11:53:33.162Z,52.70
2019-04-06T11:56:05.984Z,50.60
2019-04-06T11:58:45.162Z,48.50
2019-04-06T12:01:24.736Z,47.20
2019-04-06T12:04:13.082Z,45.40
2019-04-06T12:06:43.195Z,44.10
2019-04-06T12:09:31.520Z,42.70
2019-04-06T12:12:18.507Z,41.50
2019-04-06T12:15:04.047Z,40.60
2019-04-06T12:17:37.077Z,39.20
2019-04-06T12:20:23.969Z,38.30
2019-04-06T12:22:54.218Z,38.10
2019-04-06T12:25:30.106Z,37.60
2019-04-06T12:28:22.224Z,37.10
2019-04-06T12:30:52.820Z,36.70
2019-04-06T12:33:23.106Z,36.20
2019-04-06T12:35:53.303Z,35.70
2019-04-06T12:38:35.589Z,35.30
2019-04-06T12:41:18.296Z,35.10
2019-04-06T12:43:48.709Z,34.80
2019-04-06T12:46:21.721Z,34.50
2019-04-06T12:48:55.069Z,34.70
2019-04-06T12:51:25.310Z,35.20
2019-04-06T12:53:58.931Z,35.80
2019-04-06T12:56:32.246Z,36.50
2019-04-06T12:59:02.583Z,37.20
2019-04-06T13:01:44.456Z,37.90
2019-04-06T13:04:29.543Z,38.60
2019-04-06T13:07:14.539Z,39.30
2019-04-06T13:09:50.537Z,39.80
2019-04-06T13:12:39.131Z,40.30
2019-04-06T13:15:09.953Z,40.60
2019-04-06T13:17:48.625Z,41.00
2019-04-06T13:20:35.048Z,41.20
2019-04-06T13:23:05.248Z,41.60
2019-04-06T13:25:44.186Z,42.00
2019-04-06T13:28:17.220Z,42.10
2019-04-06T13:31:01.429Z,42.40
2019-04-06T13:33:39.942Z,42.60
2019-04-06T13:36:26.418Z,42.80
2019-04-06T13:39:07.280Z,42.70
2019-04-06T13:41:55.526Z,42.80
2019-04-06T13:44:41.929Z,43.00
2019-04-06T13:47:12.226Z,43.30
2019-04-06T13:49:54.982Z,43.00
2019-04-06T13:52:41.353Z,42.90
2019-04-06T13:55:11.690Z,42.80
2019-04-06T13:57:41.855Z,42.50
2019-04-06T14:00:24.294Z,42.30
2019-04-06T14:03:10.521Z,42.30
2019-04-06T14:05:46.443Z,42.40
2019-04-06T14:08:19.065Z,42.70
2019-04-06T14:10:57.916Z,42.30
2019-04-06T14:13:43.147Z,42.40
2019-04-06T14:16:13.514Z,42.60
2019-04-06T14:18:46.808Z,42.70
2019-04-06T14:21:19.833Z,43.20
2019-04-06T14:23:50.101Z,43.50
2019-04-06T14:26:20.215Z,43.50
2019-04-06T14:28:50.439Z,43.80
2019-04-06T14:31:30.594Z,44.10
2019-04-06T14:34:15.961Z,43.80
2019-04-06T14:36:52.001Z,44.00
2019-04-06T14:39:27.946Z,44.00
2019-04-06T14:41:58.116Z,44.10
2019-04-06T14:44:31.123Z,44.60
2019-04-06T14:47:04.080Z,44.70
2019-04-06T14:49:37.087Z,44.40
2019-04-06T14:52:07.363Z,44.40
2019-04-06T14:54:37.931Z,44.60
2019-04-06T14:57:17.145Z,44.90
2019-04-06T14:59:53.216Z,44.70
2019-04-06T15:02:35.456Z,44.70
2019-04-06T15:05:07.835Z,44.90
2019-04-06T15:07:44.013Z,45.30
2019-04-06T15:10:14.363Z,45.20
2019-04-06T15:12:47.174Z,46.30
2019-04-06T15:15:19.977Z,45.40
2019-04-06T15:17:56.000Z,46.00
2019-04-06T15:20:26.125Z,46.30
2019-04-06T15:22:56.237Z,46.20
2019-04-06T15:25:28.425Z,46.30
2019-04-06T15:28:15.024Z,46.30
2019-04-06T15:30:50.900Z,46.20
2019-04-06T15:33:39.027Z,46.40
2019-04-06T15:36:09.197Z,46.40
2019-04-06T15:38:48.630Z,46.80
2019-04-06T15:41:21.625Z,46.90
2019-04-06T15:43:57.539Z,47.30
2019-04-06T15:46:43.772Z,47.50
2019-04-06T15:49:22.974Z,47.90
2019-04-06T15:51:53.155Z,47.80
2019-04-06T15:54:29.368Z,47.70
2019-04-06T15:57:08.690Z,47.70
2019-04-06T15:59:58.198Z,48.00
2019-04-06T16:02:44.569Z,48.10
2019-04-06T16:05:15.020Z,48.10
2019-04-06T16:07:45.120Z,48.40
2019-04-06T16:10:24.145Z,48.50
2019-04-06T16:12:54.300Z,48.70
2019-04-06T16:15:24.839Z,49.10
2019-04-06T16:17:56.119Z,49.10
2019-04-06T16:20:32.466Z,49.10
2019-04-06T16:23:05.498Z,49.40
2019-04-06T16:25:38.363Z,49.80
2019-04-06T16:28:17.235Z,50.20
2019-04-06T16:30:51.448Z,50.40
2019-04-06T16:33:22.183Z,50.80
2019-04-06T16:35:52.287Z,51.10
2019-04-06T16:38:23.075Z,51.70
2019-04-06T16:40:53.363Z,51.90
2019-04-06T16:43:39.898Z,52.50
2019-04-06T16:46:15.739Z,52.90
2019-04-06T16:48:45.952Z,53.00
2019-04-06T16:51:21.820Z,53.20
2019-04-06T16:53:57.771Z,53.60
2019-04-06T16:56:39.605Z,54.10
2019-04-06T16:59:09.882Z,54.10
2019-04-06T17:01:40.041Z,54.10
2019-04-06T17:04:15.860Z,54.20
2019-04-06T17:06:48.384Z,54.70
2019-04-06T17:09:21.328Z,54.90
2019-04-06T17:11:57.379Z,55.00
2019-04-06T17:14:53.865Z,54.80
2019-04-06T17:17:29.995Z,55.10
2019-04-06T17:20:16.756Z,55.10
2019-04-06T17:22:47.331Z,55.40
2019-04-06T17:25:29.549Z,55.30
2019-04-06T17:28:00.563Z,55.40
2019-04-06T17:30:30.791Z,55.50
2019-04-06T17:33:03.582Z,55.60
2019-04-06T17:35:33.699Z,55.80
2019-04-06T17:38:03.870Z,55.90
2019-04-06T17:40:40.076Z,56.00
2019-04-06T17:43:19.325Z,56.30
2019-04-06T17:45:55.273Z,56.50
2019-04-06T17:48:28.361Z,56.70
2019-04-06T17:51:17.658Z,56.70
2019-04-06T17:54:04.125Z,57.00
2019-04-06T17:56:34.309Z,57.10
2019-04-06T17:59:10.048Z,57.80
2019-04-06T18:01:57.193Z,57.70
2019-04-06T18:04:33.906Z,57.80
2019-04-06T18:07:04.250Z,57.70
2019-04-06T18:09:51.852Z,58.30
2019-04-06T18:12:28.079Z,58.30
2019-04-06T18:14:56.644Z,58.70
2019-04-06T18:17:25.503Z,58.60
2019-04-06T18:19:54.169Z,59.20
2019-04-06T18:22:41.977Z,59.40
2019-04-06T18:25:10.519Z,59.70
2019-04-06T18:27:39.672Z,59.90
2019-04-06T18:30:10.292Z,59.80
2019-04-06T18:32:57.454Z,60.20
2019-04-06T18:35:16.701Z,60.10
2019-04-06T18:37:47.066Z,60.40
2019-04-06T18:40:23.685Z,60.60
2019-04-06T18:42:52.924Z,61.40
2019-04-06T18:45:21.950Z,61.60
2019-04-06T18:47:50.834Z,62.00
2019-04-06T18:50:19.796Z,62.30
2019-04-06T18:52:48.682Z,62.70
2019-04-06T18:55:17.746Z,62.80
2019-04-06T18:57:46.329Z,63.00
2019-04-06T19:00:16.029Z,63.40
2019-04-06T19:02:44.702Z,63.30
2019-04-06T19:05:13.980Z,63.40
2019-04-06T19:07:42.440Z,63.70
2019-04-06T19:10:11.752Z,63.80
2019-04-06T19:12:40.507Z,64.30
2019-04-06T19:15:09.346Z,64.60
2019-04-06T19:17:38.453Z,64.60
2019-04-06T19:20:13.829Z,64.50
2019-04-06T19:22:42.533Z,64.60
2019-04-06T19:25:11.585Z,65.00
2019-04-06T19:27:59.885Z,65.20
2019-04-06T19:30:28.764Z,65.30
2019-04-06T19:32:57.597Z,65.60
2019-04-06T19:35:26.158Z,66.10
2019-04-06T19:37:55.122Z,66.30
2019-04-06T19:40:27.093Z,66.60
2019-04-06T19:42:55.642Z,66.90
2019-04-06T19:45:24.183Z,67.20
2019-04-06T19:47:52.864Z,67.40
2019-04-06T19:50:22.173Z,67.70
2019-04-06T19:52:51.056Z,68.10
2019-04-06T19:55:20.491Z,68.60
2019-04-06T19:57:49.449Z,68.80
2019-04-06T20:00:20.284Z,69.10
2019-04-06T20:02:48.749Z,69.50
2019-04-06T20:05:17.211Z,69.70
2019-04-06T20:07:45.670Z,70.00
2019-04-06T20:10:15.101Z,70.50
2019-04-06T20:12:43.661Z,70.80
2019-04-06T20:15:12.607Z,70.90
2019-04-06T20:17:41.231Z,71.80
2019-04-06T20:20:29.048Z,72.40
2019-04-06T20:22:58.059Z,72.50
2019-04-06T20:25:29.601Z,72.90
2019-04-06T20:27:58.785Z,72.90
2019-04-06T20:30:28.443Z,73.10
2019-04-06T20:32:57.087Z,73.10
2019-04-06T20:35:25.545Z,74.00
2019-04-06T20:37:54.415Z,73.10
2019-04-06T20:40:23.398Z,73.40
2019-04-06T20:42:52.626Z,73.30
2019-04-06T20:45:21.194Z,73.60
2019-04-06T20:47:49.770Z,73.50
2019-04-06T20:50:18.244Z,73.60
2019-04-06T20:52:46.784Z,73.80
2019-04-06T20:55:15.473Z,73.80
2019-04-06T20:57:44.572Z,73.90
2019-04-06T21:00:13.286Z,73.90
2019-04-06T21:02:41.749Z,74.00
2019-04-06T21:05:10.269Z,74.00
2019-04-06T21:07:40.424Z,74.50
2019-04-06T21:10:09.826Z,74.70
2019-04-06T21:12:38.734Z,74.90
2019-04-06T21:15:17.683Z,74.90
2019-04-06T21:17:38.630Z,74.90
2019-04-06T21:20:15.268Z,75.20
2019-04-06T21:22:45.207Z,75.30
2019-04-06T21:25:14.020Z,75.40
2019-04-06T21:27:44.114Z,75.80
2019-04-06T21:30:13.783Z,76.10
2019-04-06T21:32:42.505Z,76.40
2019-04-06T21:35:11.606Z,76.70
2019-04-06T21:37:40.145Z,77.00
2019-04-06T21:40:09.186Z,77.00
2019-04-06T21:42:37.829Z,77.40
2019-04-06T21:45:07.865Z,77.50
2019-04-06T21:47:36.435Z,77.70
2019-04-06T21:50:08.692Z,77.80
2019-04-06T21:52:38.638Z,78.20
2019-04-06T21:55:10.294Z,78.30
2019-04-06T21:57:38.964Z,78.60
2019-04-06T22:00:10.042Z,78.80
2019-04-06T22:02:39.546Z,79.00
2019-04-06T22:05:09.373Z,79.20
2019-04-06T22:07:47.151Z,79.40
2019-04-06T22:10:08.479Z,79.70
2019-04-06T22:12:36.946Z,80.10
2019-04-06T22:15:06.481Z,80.10
2019-04-06T22:17:35.662Z,80.20
2019-04-06T22:20:05.930Z,80.70
2019-04-06T22:22:35.361Z,81.00
2019-04-06T22:25:05.824Z,81.10
2019-04-06T22:27:34.594Z,81.40
2019-04-06T22:30:06.873Z,81.70
2019-04-06T22:32:35.575Z,81.70
2019-04-06T22:35:07.271Z,81.90
2019-04-06T22:37:36.313Z,82.00
2019-04-06T22:40:08.882Z,82.30
2019-04-06T22:42:37.364Z,82.60
2019-04-06T22:45:09.298Z,82.90
2019-04-06T22:47:38.146Z,83.30
2019-04-06T22:50:07.727Z,83.30
2019-04-06T22:52:36.748Z,83.40
2019-04-06T22:55:09.491Z,83.60
2019-04-06T22:57:38.671Z,83.90
2019-04-06T23:00:11.403Z,84.20
2019-04-06T23:02:57.771Z,85.30
2019-04-06T23:05:27.942Z,84.80
2019-04-06T23:07:56.695Z,84.80
2019-04-06T23:10:25.171Z,85.00
2019-04-06T23:12:54.124Z,85.30
2019-04-06T23:15:23.270Z,85.80
2019-04-06T23:17:52.185Z,86.00
2019-04-06T23:20:26.762Z,86.10
2019-04-06T23:22:55.441Z,86.40
2019-04-06T23:25:24.395Z,86.70
2019-04-06T23:27:53.344Z,87.10
2019-04-06T23:30:22.667Z,88.30
2019-04-06T23:32:51.331Z,87.90
2019-04-06T23:35:19.785Z,88.20
2019-04-06T23:37:49.192Z,88.90
2019-04-06T23:40:18.595Z,89.30
2019-04-06T23:42:47.131Z,89.40
2019-04-06T23:45:15.680Z,89.30
2019-04-06T23:47:44.506Z,89.50
2019-04-06T23:50:13.446Z,90.00
2019-04-06T23:52:42.345Z,90.10
2019-04-06T23:55:11.941Z,90.20
2019-04-06T23:57:40.678Z,90.40
